createdAt,value
2024-01-15T00:00:30.794Z,98469.00
2024-01-15T00:02:59.066Z,98468.00
2024-01-15T00:05:26.951Z,98474.00
2024-01-15T00:07:54.789Z,98462.00
2024-01-15T00:10:23.549Z,98454.00
2024-01-15T00:12:51.549Z,98451.00
2024-01-15T00:15:19.536Z,98447.00
2024-01-15T00:17:47.741Z,98447.00
2024-01-15T00:20:15.532Z,98456.00
2024-01-15T00:22:43.267Z,98457.00
2024-01-15T00:25:11.177Z,98444.00
2024-01-15T00:27:38.781Z,98437.00
2024-01-15T00:30:07.490Z,98440.00
2024-01-15T00:32:35.589Z,98438.00
2024-01-15T00:35:04.805Z,98439.00
2024-01-15T00:37:32.805Z,98430.00
2024-01-15T00:40:01.082Z,98439.00
2024-01-15T00:42:28.824Z,98443.00
2024-01-15T00:44:56.705Z,98445.00
2024-01-15T00:47:24.457Z,98441.00
2024-01-15T00:49:52.324Z,98433.00
2024-01-15T00:52:20.027Z,98437.00
2024-01-15T00:54:47.652Z,98432.00
2024-01-15T00:57:15.442Z,98431.00
2024-01-15T00:59:43.357Z,98433.00
2024-01-15T01:02:11.355Z,98430.00
2024-01-15T01:04:38.940Z,98435.00
2024-01-15T01:07:06.666Z,98428.00
2024-01-15T01:09:34.571Z,98423.00
2024-01-15T01:12:02.194Z,98438.00
2024-01-15T01:14:29.833Z,98432.00
2024-01-15T01:16:57.711Z,98435.00
2024-01-15T01:19:26.957Z,98427.00
2024-01-15T01:21:54.880Z,98413.00
2024-01-15T01:24:22.790Z,98420.00
2024-01-15T01:26:50.778Z,98428.00
2024-01-15T01:29:18.939Z,98427.00
2024-01-15T01:31:47.212Z,98433.00
2024-01-15T01:34:18.870Z,98440.00
2024-01-15T01:36:46.865Z,98436.00
2024-01-15T01:39:19.053Z,98441.00
2024-01-15T01:41:46.950Z,98442.00
2024-01-15T01:44:14.853Z,98429.00
2024-01-15T01:46:42.816Z,98444.00
2024-01-15T01:49:11.325Z,98437.00
2024-01-15T01:51:41.132Z,98427.00
2024-01-15T01:54:15.169Z,98428.00
2024-01-15T01:56:44.570Z,98430.00
2024-01-15T01:59:12.858Z,98432.00
2024-01-15T02:01:40.804Z,98426.00
2024-01-15T02:04:09.012Z,98423.00
2024-01-15T02:06:37.631Z,98422.00
2024-01-15T02:09:06.688Z,98423.00
2024-01-15T02:11:34.459Z,98417.00
2024-01-15T02:14:05.757Z,98407.00
2024-01-15T02:16:33.500Z,98393.00
2024-01-15T02:19:01.182Z,98405.00
2024-01-15T02:21:30.380Z,98398.00
2024-01-15T02:23:58.364Z,98398.00
2024-01-15T02:26:26.184Z,98397.00
2024-01-15T02:28:53.936Z,98396.00
2024-01-15T02:31:22.341Z,98388.00
2024-01-15T02:33:50.101Z,98396.00
2024-01-15T02:36:38.276Z,98385.00
2024-01-15T02:39:06.644Z,98387.00
2024-01-15T02:41:34.927Z,98386.00
2024-01-15T02:44:03.481Z,98381.00
2024-01-15T02:46:31.126Z,98379.00
2024-01-15T02:48:58.988Z,98381.00
2024-01-15T02:51:26.920Z,98371.00
2024-01-15T02:53:54.712Z,98364.00
2024-01-15T02:56:22.443Z,98364.00
2024-01-15T02:58:50.383Z,98364.00
2024-01-15T03:01:22.710Z,98351.00
2024-01-15T03:03:50.765Z,98360.00
2024-01-15T03:06:18.709Z,98361.00
2024-01-15T03:08:49.145Z,98369.00
2024-01-15T03:11:16.997Z,98361.00
2024-01-15T03:13:44.856Z,98363.00
2024-01-15T03:16:12.795Z,98360.00
2024-01-15T03:18:40.925Z,98359.00
2024-01-15T03:21:09.190Z,98361.00
2024-01-15T03:23:37.101Z,98355.00
2024-01-15T03:26:04.948Z,98367.00
2024-01-15T03:28:32.754Z,98364.00
2024-01-15T03:31:00.685Z,98360.00
2024-01-15T03:33:28.771Z,98365.00
2024-01-15T03:35:56.626Z,98355.00
2024-01-15T03:38:26.367Z,98354.00
2024-01-15T03:40:54.142Z,98355.00
2024-01-15T03:43:22.112Z,98351.00
2024-01-15T03:45:50.059Z,98352.00
2024-01-15T03:48:18.683Z,98343.00
2024-01-15T03:50:46.673Z,98350.00
2024-01-15T03:53:14.448Z,98345.00
2024-01-15T03:55:42.209Z,98343.00
2024-01-15T03:58:10.244Z,98346.00
2024-01-15T04:00:38.318Z,98341.00
2024-01-15T04:03:06.534Z,98335.00
2024-01-15T04:05:34.458Z,98344.00
2024-01-15T04:08:05.129Z,98340.00
2024-01-15T04:10:32.719Z,98339.00
2024-01-15T04:13:01.777Z,98335.00
2024-01-15T04:15:30.594Z,98335.00
2024-01-15T04:17:58.485Z,98342.00
2024-01-15T04:20:26.210Z,98338.00
2024-01-15T04:22:54.398Z,98326.00
2024-01-15T04:25:22.346Z,98336.00
2024-01-15T04:27:50.166Z,98336.00
2024-01-15T04:30:18.348Z,98331.00
2024-01-15T04:32:46.738Z,98346.00
2024-01-15T04:35:14.674Z,98343.00
2024-01-15T04:37:42.642Z,98348.00
2024-01-15T04:40:10.966Z,98354.00
2024-01-15T04:42:38.799Z,98359.00
2024-01-15T04:45:06.615Z,98358.00
2024-01-15T04:47:34.557Z,98362.00
2024-01-15T04:50:02.440Z,98357.00
2024-01-15T04:52:30.202Z,98357.00
2024-01-15T04:54:57.875Z,98355.00
2024-01-15T04:57:25.607Z,98354.00
2024-01-15T04:59:54.467Z,98351.00
2024-01-15T05:05:13.500Z,98349.00
2024-01-15T05:07:41.165Z,98344.00
2024-01-15T05:10:09.329Z,98355.00
2024-01-15T05:12:37.326Z,98350.00
2024-01-15T05:15:06.415Z,98342.00
2024-01-15T05:17:34.104Z,98362.00
2024-01-15T05:20:02.078Z,98348.00
2024-01-15T05:22:30.001Z,98344.00
2024-01-15T05:24:57.756Z,98341.00
2024-01-15T05:27:25.494Z,98349.00
2024-01-15T05:29:53.323Z,98351.00
2024-01-15T05:32:21.004Z,98359.00
2024-01-15T05:34:48.920Z,98363.00
2024-01-15T05:37:16.874Z,98359.00
2024-01-15T05:39:46.133Z,98360.00
2024-01-15T05:42:13.915Z,98364.00
2024-01-15T05:44:41.583Z,98363.00
2024-01-15T05:47:10.004Z,98353.00
2024-01-15T05:49:38.695Z,98349.00
2024-01-15T05:52:06.699Z,98343.00
2024-01-15T05:54:34.478Z,98337.00
2024-01-15T05:57:03.380Z,98345.00
2024-01-15T05:59:33.566Z,98352.00
2024-01-15T06:02:01.257Z,98350.00
2024-01-15T06:04:29.138Z,98350.00
2024-01-15T06:06:57.112Z,98362.00
2024-01-15T06:09:25.283Z,98357.00
2024-01-15T06:11:57.768Z,98343.00
2024-01-15T06:14:25.478Z,98346.00
2024-01-15T06:16:53.765Z,98346.00
2024-01-15T06:19:21.697Z,98341.00
2024-01-15T06:21:49.924Z,98343.00
2024-01-15T06:24:19.287Z,98339.00
2024-01-15T06:26:49.059Z,98335.00
2024-01-15T06:29:16.983Z,98343.00
2024-01-15T06:31:45.880Z,98340.00
2024-01-15T06:34:14.209Z,98337.00
2024-01-15T06:36:42.006Z,98335.00
2024-01-15T06:39:11.458Z,98335.00
2024-01-15T06:41:45.196Z,98337.00
2024-01-15T06:44:13.262Z,98332.00
2024-01-15T06:46:45.305Z,98337.00
2024-01-15T06:49:14.164Z,98349.00
2024-01-15T06:51:42.250Z,98343.00
2024-01-15T06:54:10.018Z,98354.00
2024-01-15T06:56:38.171Z,98350.00
2024-01-15T06:59:05.826Z,98356.00
2024-01-15T07:01:33.705Z,98355.00
2024-01-15T07:04:01.392Z,98359.00
2024-01-15T07:06:29.216Z,98360.00
2024-01-15T07:09:00.036Z,98365.00
2024-01-15T07:11:27.736Z,98364.00
2024-01-15T07:13:55.521Z,98365.00
2024-01-15T07:16:36.089Z,98365.00
2024-01-15T07:19:05.964Z,98378.00
2024-01-15T07:21:33.946Z,98371.00
2024-01-15T07:24:01.647Z,98373.00
2024-01-15T07:26:31.210Z,98370.00
2024-01-15T07:28:58.897Z,98385.00
2024-01-15T07:31:26.683Z,98383.00
2024-01-15T07:33:54.380Z,98384.00
2024-01-15T07:36:22.048Z,98382.00
2024-01-15T07:38:50.115Z,98385.00
2024-01-15T07:41:17.852Z,98381.00
2024-01-15T07:43:45.522Z,98375.00
2024-01-15T07:46:13.201Z,98382.00
2024-01-15T07:48:41.085Z,98380.00
2024-01-15T07:51:08.988Z,98380.00
2024-01-15T07:53:36.866Z,98379.00
2024-01-15T07:56:04.931Z,98374.00
2024-01-15T07:58:32.652Z,98381.00
2024-01-15T08:01:00.496Z,98382.00
2024-01-15T08:03:28.828Z,98388.00
2024-01-15T08:05:58.926Z,98388.00
2024-01-15T08:08:29.602Z,98396.00
2024-01-15T08:10:57.736Z,98389.00
2024-01-15T08:13:27.772Z,98383.00
2024-01-15T08:15:55.972Z,98388.00
2024-01-15T08:18:24.161Z,98386.00
2024-01-15T08:20:52.913Z,98398.00
2024-01-15T08:23:21.312Z,98395.00
2024-01-15T08:25:49.119Z,98400.00
2024-01-15T08:28:17.432Z,98408.00
2024-01-15T08:30:45.293Z,98405.00
2024-01-15T08:33:21.302Z,98404.00
2024-01-15T08:35:50.844Z,98399.00
2024-01-15T08:38:20.087Z,98407.00
2024-01-15T08:40:48.324Z,98402.00
2024-01-15T08:43:16.089Z,98402.00
2024-01-15T08:45:43.981Z,98402.00
2024-01-15T08:48:12.051Z,98400.00
2024-01-15T08:50:39.948Z,98399.00
2024-01-15T08:53:07.660Z,98399.00
2024-01-15T08:55:35.488Z,98402.00
2024-01-15T08:58:03.281Z,98400.00
2024-01-15T09:00:33.883Z,98399.00
2024-01-15T09:03:01.514Z,98392.00
2024-01-15T09:05:30.839Z,98404.00
2024-01-15T09:08:00.208Z,98402.00
2024-01-15T09:10:28.181Z,98402.00
2024-01-15T09:12:56.285Z,98395.00
2024-01-15T09:15:24.662Z,98395.00
2024-01-15T09:17:52.515Z,98405.00
2024-01-15T09:20:20.579Z,98410.00
2024-01-15T09:22:48.451Z,98423.00
2024-01-15T09:25:16.314Z,98417.00
2024-01-15T09:27:44.047Z,98412.00
2024-01-15T09:30:12.769Z,98416.00
2024-01-15T09:32:40.550Z,98415.00
2024-01-15T09:35:08.836Z,98414.00
2024-01-15T09:37:44.690Z,98406.00
2024-01-15T09:40:17.067Z,98416.00
2024-01-15T09:42:47.239Z,98411.00
2024-01-15T09:45:15.885Z,98408.00
2024-01-15T09:47:45.974Z,98411.00
2024-01-15T09:50:16.587Z,98413.00
2024-01-15T09:52:47.714Z,98421.00
2024-01-15T09:55:17.658Z,98416.00
2024-01-15T09:57:47.760Z,98423.00
2024-01-15T10:00:18.763Z,98412.00
2024-01-15T10:02:46.499Z,98402.00
2024-01-15T10:05:14.504Z,98413.00
2024-01-15T10:07:42.989Z,98427.00
2024-01-15T10:10:12.173Z,98417.00
2024-01-15T10:12:41.056Z,98406.00
2024-01-15T10:15:12.997Z,98408.00
2024-01-15T10:17:41.795Z,98419.00
2024-01-15T10:20:11.620Z,98404.00
2024-01-15T10:22:44.774Z,98407.00
2024-01-15T10:25:17.078Z,98407.00
2024-01-15T10:27:44.901Z,98407.00
2024-01-15T10:30:15.615Z,98409.00
2024-01-15T10:32:43.849Z,98409.00
2024-01-15T10:35:11.832Z,98417.00
2024-01-15T10:37:39.706Z,98402.00
2024-01-15T10:40:08.349Z,98422.00
2024-01-15T10:42:36.327Z,98413.00
2024-01-15T10:45:04.259Z,98425.00
2024-01-15T10:47:32.279Z,98419.00
2024-01-15T10:50:00.776Z,98417.00
2024-01-15T10:52:33.520Z,98419.00
2024-01-15T10:55:06.643Z,98412.00
2024-01-15T10:57:40.630Z,98410.00
2024-01-15T11:00:10.453Z,98406.00
2024-01-15T11:02:39.305Z,98424.00
2024-01-15T11:05:08.328Z,98422.00
2024-01-15T11:07:37.481Z,98436.00
2024-01-15T11:10:06.263Z,98447.00
2024-01-15T11:12:34.118Z,98441.00
2024-01-15T11:15:06.035Z,98434.00
2024-01-15T11:17:53.661Z,98433.00
2024-01-15T11:20:21.516Z,98432.00
2024-01-15T11:22:50.740Z,98427.00
2024-01-15T11:25:20.566Z,98410.00
2024-01-15T11:27:57.381Z,98420.00
2024-01-15T11:30:28.631Z,98423.00
2024-01-15T11:32:56.585Z,98427.00
2024-01-15T11:35:28.886Z,98427.00
2024-01-15T11:37:57.397Z,98426.00
2024-01-15T11:40:44.755Z,98431.00
2024-01-15T11:43:14.519Z,98417.00
2024-01-15T11:45:42.841Z,98417.00
2024-01-15T11:48:22.834Z,98415.00
2024-01-15T11:50:52.443Z,98410.00
2024-01-15T11:53:42.263Z,98407.00
2024-01-15T11:56:18.549Z,98407.00
2024-01-15T11:58:46.386Z,98407.00
2024-01-15T12:01:14.492Z,98409.00
2024-01-15T12:03:42.366Z,98407.00
2024-01-15T12:06:13.040Z,98407.00
2024-01-15T12:08:41.029Z,98403.00
2024-01-15T12:11:15.449Z,98408.00
2024-01-15T12:13:43.382Z,98408.00
2024-01-15T12:16:11.152Z,98414.00
2024-01-15T12:18:39.031Z,98408.00
2024-01-15T12:21:07.074Z,98410.00
2024-01-15T12:23:35.845Z,98401.00
2024-01-15T12:26:03.778Z,98404.00
2024-01-15T12:28:31.409Z,98412.00
2024-01-15T12:31:00.661Z,98403.00
2024-01-15T12:33:29.460Z,98410.00
2024-01-15T12:35:57.385Z,98409.00
2024-01-15T12:38:25.170Z,98403.00
2024-01-15T12:40:52.742Z,98400.00
2024-01-15T12:43:20.492Z,98397.00
2024-01-15T12:45:48.601Z,98389.00
2024-01-15T12:48:19.667Z,98401.00
2024-01-15T12:50:48.763Z,98404.00
2024-01-15T12:53:17.129Z,98405.00
2024-01-15T12:55:50.013Z,98413.00
2024-01-15T12:58:20.253Z,98407.00
2024-01-15T13:00:49.575Z,98408.00
2024-01-15T13:03:17.586Z,98414.00
2024-01-15T13:05:46.695Z,98417.00
2024-01-15T13:08:14.555Z,98423.00
2024-01-15T13:10:43.736Z,98410.00
2024-01-15T13:13:11.638Z,98418.00
2024-01-15T13:15:39.506Z,98409.00
2024-01-15T13:18:08.123Z,98415.00
2024-01-15T13:20:36.556Z,98409.00
2024-01-15T13:23:06.057Z,98420.00
2024-01-15T13:25:37.004Z,98418.00
2024-01-15T13:28:09.066Z,98426.00
2024-01-15T13:30:37.055Z,98420.00
2024-01-15T13:33:08.935Z,98418.00
2024-01-15T13:35:37.546Z,98413.00
2024-01-15T13:38:05.313Z,98406.00
2024-01-15T13:40:33.033Z,98410.00
2024-01-15T13:43:01.050Z,98414.00
2024-01-15T13:45:29.017Z,98412.00
2024-01-15T13:47:56.835Z,98414.00
2024-01-15T13:50:25.989Z,98416.00
2024-01-15T13:52:54.183Z,98414.00
2024-01-15T13:55:22.401Z,98418.00
2024-01-15T13:57:50.452Z,98417.00
2024-01-15T14:00:23.798Z,98405.00
2024-01-15T14:02:51.937Z,98410.00
2024-01-15T14:05:19.950Z,98413.00
2024-01-15T14:07:48.613Z,98414.00
2024-01-15T14:10:16.474Z,98420.00
2024-01-15T14:12:44.390Z,98417.00
2024-01-15T14:15:12.401Z,98422.00
2024-01-15T14:17:40.594Z,98425.00
2024-01-15T14:20:15.265Z,98415.00
2024-01-15T14:22:43.165Z,98416.00
2024-01-15T14:25:11.216Z,98413.00
2024-01-15T14:27:39.140Z,98432.00
2024-01-15T14:30:09.254Z,98420.00
2024-01-15T14:32:37.370Z,98420.00
2024-01-15T14:35:07.335Z,98427.00
2024-01-15T14:37:35.259Z,98420.00
2024-01-15T14:40:03.775Z,98432.00
2024-01-15T14:42:31.772Z,98432.00
2024-01-15T14:44:59.621Z,98426.00
2024-01-15T14:47:28.974Z,98423.00
2024-01-15T14:49:58.460Z,98427.00
2024-01-15T14:52:26.473Z,98426.00
2024-01-15T14:54:54.287Z,98433.00
2024-01-15T14:57:23.055Z,98433.00
2024-01-15T14:59:50.765Z,98433.00
2024-01-15T15:02:19.540Z,98432.00
2024-01-15T15:04:49.714Z,98449.00
2024-01-15T15:07:18.038Z,98446.00
2024-01-15T15:09:52.362Z,98458.00
2024-01-15T15:12:20.617Z,98461.00
2024-01-15T15:14:56.458Z,98460.00
2024-01-15T15:17:31.748Z,98465.00
2024-01-15T15:19:59.743Z,98467.00
2024-01-15T15:22:28.565Z,98468.00
2024-01-15T15:24:56.741Z,98473.00
2024-01-15T15:27:24.613Z,98476.00
2024-01-15T15:29:52.700Z,98477.00
2024-01-15T15:32:20.505Z,98475.00
2024-01-15T15:34:48.829Z,98482.00
2024-01-15T15:37:18.580Z,98486.00
2024-01-15T15:39:47.029Z,98478.00
2024-01-15T15:42:15.620Z,98484.00
2024-01-15T15:44:47.848Z,98485.00
2024-01-15T15:47:15.818Z,98488.00
2024-01-15T15:49:43.870Z,98496.00
2024-01-15T15:52:11.958Z,98503.00
2024-01-15T15:54:39.919Z,98506.00
2024-01-15T15:57:07.843Z,98497.00
2024-01-15T15:59:35.489Z,98503.00
2024-01-15T16:02:03.378Z,98507.00
2024-01-15T16:04:34.213Z,98496.00
2024-01-15T16:07:02.723Z,98502.00
2024-01-15T16:09:30.794Z,98517.00
2024-01-15T16:12:02.035Z,98518.00
2024-01-15T16:14:32.569Z,98517.00
2024-01-15T16:23:13.975Z,98519.00
2024-01-15T16:23:27.319Z,98518.00
2024-01-15T16:23:42.789Z,98518.00
2024-01-15T16:25:23.809Z,98516.00
2024-01-15T16:27:51.892Z,98522.00
2024-01-15T16:30:25.991Z,98530.00
2024-01-15T16:33:01.197Z,98531.00
2024-01-15T16:35:29.422Z,98536.00
2024-01-15T16:37:57.486Z,98537.00
2024-01-15T16:40:25.378Z,98535.00
2024-01-15T16:42:53.195Z,98541.00
2024-01-15T16:45:20.873Z,98534.00
2024-01-15T16:47:48.888Z,98543.00
2024-01-15T16:50:16.763Z,98550.00
2024-01-15T16:52:44.560Z,98562.00
2024-01-15T16:55:12.405Z,98554.00
2024-01-15T16:57:40.287Z,98552.00
2024-01-15T17:00:08.970Z,98554.00
2024-01-15T17:02:36.937Z,98563.00
2024-01-15T17:05:05.120Z,98575.00
2024-01-15T17:07:33.182Z,98577.00
2024-01-15T17:10:03.535Z,98585.00
2024-01-15T17:12:31.691Z,98588.00
2024-01-15T17:14:59.734Z,98591.00
2024-01-15T17:17:27.516Z,98597.00
2024-01-15T17:19:55.928Z,98606.00
2024-01-15T17:22:23.798Z,98613.00
2024-01-15T17:24:51.640Z,98621.00
2024-01-15T17:27:19.456Z,98624.00
2024-01-15T17:29:47.598Z,98633.00
2024-01-15T17:32:16.695Z,98632.00
2024-01-15T17:34:44.627Z,98635.00
2024-01-15T17:37:12.347Z,98640.00
2024-01-15T17:39:41.086Z,98643.00
2024-01-15T17:42:10.011Z,98653.00
2024-01-15T17:44:37.892Z,98647.00
2024-01-15T17:47:06.452Z,98656.00
2024-01-15T17:49:34.754Z,98656.00
2024-01-15T17:52:02.943Z,98668.00
2024-01-15T17:54:32.212Z,98665.00
2024-01-15T17:57:00.768Z,98672.00
2024-01-15T17:59:29.011Z,98671.00
2024-01-15T18:01:56.872Z,98684.00
2024-01-15T18:04:25.101Z,98678.00
2024-01-15T18:06:53.053Z,98689.00
2024-01-15T18:09:21.021Z,98688.00
2024-01-15T18:11:48.946Z,98684.00
2024-01-15T18:14:17.280Z,98688.00
2024-01-15T18:16:49.659Z,98689.00
2024-01-15T18:19:18.803Z,98701.00
2024-01-15T18:21:47.657Z,98703.00
2024-01-15T18:24:15.422Z,98700.00
2024-01-15T18:26:46.071Z,98711.00
2024-01-15T18:29:13.875Z,98704.00
2024-01-15T18:31:41.589Z,98707.00
2024-01-15T18:34:09.944Z,98713.00
2024-01-15T18:36:38.625Z,98719.00
2024-01-15T18:39:08.266Z,98724.00
2024-01-15T18:41:37.619Z,98730.00
2024-01-15T18:44:05.797Z,98736.00
2024-01-15T18:46:33.633Z,98737.00
2024-01-15T18:51:29.975Z,98748.00
2024-01-15T18:53:58.450Z,98743.00
2024-01-15T18:56:26.464Z,98750.00
2024-01-15T18:58:54.406Z,98747.00
2024-01-15T19:01:32.266Z,98744.00
2024-01-15T19:04:01.343Z,98749.00
2024-01-15T19:06:29.213Z,98750.00
2024-01-15T19:08:57.187Z,98761.00
2024-01-15T19:11:27.601Z,98773.00
2024-01-15T19:13:55.520Z,98767.00
2024-01-15T19:16:23.649Z,98773.00
2024-01-15T19:18:52.796Z,98780.00
2024-01-15T19:21:23.394Z,98781.00
2024-01-15T19:23:51.158Z,98780.00
2024-01-15T19:26:23.607Z,98785.00
2024-01-15T19:28:51.622Z,98784.00
2024-01-15T19:31:20.782Z,98792.00
2024-01-15T19:33:49.231Z,98787.00
2024-01-15T19:36:30.111Z,98791.00
2024-01-15T19:38:57.841Z,98794.00
2024-01-15T19:41:25.938Z,98796.00
2024-01-15T19:43:56.196Z,98796.00
2024-01-15T19:46:24.105Z,98812.00
2024-01-15T19:48:52.064Z,98806.00
2024-01-15T19:51:19.855Z,98812.00
2024-01-15T19:53:48.202Z,98818.00
2024-01-15T19:56:18.807Z,98810.00
2024-01-15T19:58:46.776Z,98819.00
2024-01-15T20:01:14.730Z,98826.00
2024-01-15T20:03:44.260Z,98828.00
2024-01-15T20:06:16.228Z,98840.00
2024-01-15T20:08:46.185Z,98836.00
2024-01-15T20:11:15.496Z,98839.00
2024-01-15T20:13:44.214Z,98840.00
2024-01-15T20:16:15.730Z,98846.00
2024-01-15T20:18:45.177Z,98851.00
2024-01-15T20:21:13.244Z,98845.00
2024-01-15T20:26:12.500Z,98851.00
2024-01-15T20:28:40.254Z,98853.00
2024-01-15T20:31:09.578Z,98847.00
2024-01-15T20:33:37.671Z,98850.00
2024-01-15T20:36:06.837Z,98850.00
2024-01-15T20:38:35.842Z,98851.00
2024-01-15T20:41:04.304Z,98865.00
2024-01-15T20:43:36.516Z,98863.00
2024-01-15T20:46:07.530Z,98872.00
2024-01-15T20:48:35.638Z,98869.00
2024-01-15T20:51:04.286Z,98869.00
2024-01-15T20:53:32.153Z,98871.00
2024-01-15T20:56:00.060Z,98867.00
2024-01-15T20:58:29.092Z,98875.00
2024-01-15T21:00:57.817Z,98864.00
2024-01-15T21:03:25.728Z,98879.00
2024-01-15T21:05:53.838Z,98877.00
2024-01-15T21:08:22.080Z,98881.00
2024-01-15T21:10:50.019Z,98879.00
2024-01-15T21:13:19.706Z,98877.00
2024-01-15T21:15:48.192Z,98887.00
2024-01-15T21:18:18.589Z,98893.00
2024-01-15T21:20:46.776Z,98890.00
2024-01-15T21:23:14.698Z,98893.00
2024-01-15T21:25:42.933Z,98873.00
2024-01-15T21:28:11.157Z,98886.00
2024-01-15T21:30:41.477Z,98882.00
2024-01-15T21:33:10.985Z,98886.00
2024-01-15T21:35:39.734Z,98886.00
2024-01-15T21:38:08.517Z,98883.00
2024-01-15T21:40:36.477Z,98884.00
2024-01-15T21:43:04.866Z,98899.00
2024-01-15T21:45:32.633Z,98888.00
2024-01-15T21:48:01.382Z,98896.00
2024-01-15T21:50:30.976Z,98896.00
2024-01-15T21:53:00.374Z,98896.00
2024-01-15T21:55:28.396Z,98900.00
2024-01-15T21:57:56.189Z,98903.00
2024-01-15T22:00:24.242Z,98909.00
2024-01-15T22:02:52.472Z,98904.00
2024-01-15T22:05:20.393Z,98917.00
2024-01-15T22:07:48.226Z,98917.00
2024-01-15T22:10:16.281Z,98917.00
2024-01-15T22:12:44.114Z,98923.00
2024-01-15T22:15:14.226Z,98925.00
2024-01-15T22:17:42.684Z,98931.00
2024-01-15T22:20:11.023Z,98935.00
2024-01-15T22:22:38.794Z,98942.00
2024-01-15T22:25:07.201Z,98940.00
2024-01-15T22:27:34.983Z,98939.00
2024-01-15T22:30:02.668Z,98946.00
2024-01-15T22:32:32.687Z,98946.00
2024-01-15T22:35:01.406Z,98943.00
2024-01-15T22:37:29.109Z,98948.00
2024-01-15T22:39:56.913Z,98941.00
2024-01-15T22:42:24.800Z,98950.00
2024-01-15T22:44:52.771Z,98956.00
2024-01-15T22:47:21.905Z,98959.00
2024-01-15T22:49:53.066Z,98964.00
2024-01-15T22:52:20.940Z,98962.00
2024-01-15T22:54:50.436Z,98957.00
2024-01-15T22:57:19.088Z,98962.00
2024-01-15T22:59:46.949Z,98972.00
2024-01-15T23:02:14.656Z,98974.00
2024-01-15T23:04:43.770Z,98980.00
2024-01-15T23:07:12.127Z,98979.00
2024-01-15T23:09:39.800Z,98986.00
2024-01-15T23:12:08.618Z,98988.00
2024-01-15T23:14:37.892Z,98987.00
2024-01-15T23:17:07.115Z,98998.00
2024-01-15T23:19:34.872Z,98996.00
2024-01-15T23:22:02.900Z,98994.00
2024-01-15T23:24:30.582Z,99013.00
2024-01-15T23:26:59.064Z,99013.00
2024-01-15T23:29:27.405Z,99024.00
2024-01-15T23:31:55.556Z,99027.00
2024-01-15T23:34:23.521Z,99024.00
2024-01-15T23:36:51.358Z,99029.00
2024-01-15T23:39:19.161Z,99033.00
2024-01-15T23:41:46.964Z,99020.00
2024-01-15T23:44:14.992Z,99025.00
2024-01-15T23:46:42.793Z,99026.00
2024-01-15T23:49:10.489Z,99024.00
2024-01-15T23:51:38.167Z,99030.00
2024-01-15T23:54:06.055Z,99038.00
2024-01-15T23:56:33.764Z,99044.00
2024-01-15T23:59:01.492Z,99041.00
